createdAt,value
2022-08-27T00:00:07.977Z,996.1
2022-08-27T00:01:11.981Z,996.1
2022-08-27T00:02:11.984Z,996.1
2022-08-27T00:03:13.967Z,996.1
2022-08-27T00:04:15.983Z,996.1
2022-08-27T00:05:17.936Z,996.1
2022-08-27T00:06:19.963Z,996
2022-08-27T00:07:21.941Z,996
2022-08-27T00:08:23.949Z,996
2022-08-27T00:09:26.964Z,996
2022-08-27T00:10:27.998Z,996
2022-08-27T00:11:29.943Z,996
2022-08-27T00:12:31.953Z,996
2022-08-27T00:13:33.951Z,996
2022-08-27T00:14:35.961Z,996.1
2022-08-27T00:15:37.999Z,996.1
2022-08-27T00:16:40.046Z,996.1
2022-08-27T00:17:41.977Z,996.1
2022-08-27T00:18:43.967Z,996.1
2022-08-27T00:19:45.967Z,996.1
2022-08-27T00:20:47.972Z,996.1
2022-08-27T00:22:05.311Z,996.1
2022-08-27T00:23:06.974Z,996.1
2022-08-27T00:24:08.963Z,996.1
2022-08-27T00:25:10.978Z,996.1
2022-08-27T00:26:12.974Z,996.1
2022-08-27T00:27:15.014Z,996.1
2022-08-27T00:28:17.028Z,996.2
2022-08-27T00:29:18.986Z,996.2
2022-08-27T00:30:20.986Z,996.1
2022-08-27T00:31:27.298Z,996.1
2022-08-27T00:32:24.981Z,996.1
2022-08-27T00:33:27.037Z,996.1
2022-08-27T00:34:28.971Z,996.1
2022-08-27T00:35:30.995Z,996.1
2022-08-27T00:36:32.994Z,996.1
2022-08-27T00:37:35.021Z,996.1
2022-08-27T00:38:37.060Z,996.1
2022-08-27T00:39:39.003Z,996.2
2022-08-27T00:40:40.996Z,996.2
2022-08-27T00:41:43.001Z,996.2
2022-08-27T00:42:45.061Z,996.2
2022-08-27T00:43:47.024Z,996.2
2022-08-27T00:44:49.006Z,996.2
2022-08-27T00:45:51.069Z,996.2
2022-08-27T00:46:53.033Z,996.2
2022-08-27T00:47:55.061Z,996.3
2022-08-27T00:48:57.010Z,996.3
2022-08-27T00:49:59.036Z,996.3
2022-08-27T00:51:01.058Z,996.3
2022-08-27T00:55:41.053Z,996.2
2022-08-27T00:56:43.043Z,996.2
2022-08-27T00:57:45.042Z,996.2
2022-08-27T00:58:47.035Z,996.2
2022-08-27T00:59:49.036Z,996.1
2022-08-27T01:00:51.093Z,996.1
2022-08-27T01:01:53.064Z,996.1
2022-08-27T01:02:55.061Z,996.1
2022-08-27T01:03:57.036Z,996.1
2022-08-27T01:04:59.041Z,996.1
2022-08-27T01:06:01.250Z,996
2022-08-27T01:07:03.046Z,996
2022-08-27T01:08:05.040Z,996
2022-08-27T01:09:07.069Z,996
2022-08-27T01:10:09.084Z,996
2022-08-27T01:11:11.103Z,996
2022-08-27T01:12:13.055Z,996
2022-08-27T01:13:16.099Z,996
2022-08-27T01:14:18.058Z,996
2022-08-27T01:15:20.360Z,996
2022-08-27T01:16:22.167Z,996
2022-08-27T01:17:24.068Z,996
2022-08-27T01:18:26.089Z,996
2022-08-27T01:19:28.167Z,996
2022-08-27T01:20:30.062Z,996
2022-08-27T01:21:32.091Z,996
2022-08-27T01:22:34.148Z,996
2022-08-27T01:23:36.071Z,996
2022-08-27T01:24:38.064Z,996
2022-08-27T01:25:40.093Z,996
2022-08-27T01:26:42.117Z,996
2022-08-27T01:27:44.135Z,995.9
2022-08-27T01:28:46.079Z,995.9
2022-08-27T01:29:48.082Z,996
2022-08-27T01:30:51.032Z,996
2022-08-27T01:31:53.145Z,996
2022-08-27T01:32:55.982Z,996
2022-08-27T01:33:58.080Z,996
2022-08-27T01:35:00.287Z,996
2022-08-27T01:36:02.243Z,996
2022-08-27T01:37:04.243Z,996
2022-08-27T01:38:06.172Z,995.9
2022-08-27T01:39:08.117Z,996
2022-08-27T01:40:10.179Z,996
2022-08-27T01:41:13.212Z,996
2022-08-27T01:42:16.004Z,996.1
2022-08-27T01:43:18.139Z,996.1
2022-08-27T01:44:20.962Z,996.2
2022-08-27T01:45:22.111Z,996.1
2022-08-27T01:46:24.236Z,996.1
2022-08-27T01:47:30.326Z,996.1
2022-08-27T01:48:28.151Z,996.2
2022-08-27T01:49:30.115Z,996.2
2022-08-27T01:50:32.111Z,996.2
2022-08-27T01:51:34.132Z,996.2
2022-08-27T01:52:36.115Z,996.2
2022-08-27T01:53:38.182Z,996.1
2022-08-27T01:54:40.119Z,996.1
2022-08-27T01:55:43.426Z,996.1
2022-08-27T01:56:46.186Z,996.1
2022-08-27T01:57:48.127Z,996.1
2022-08-27T01:58:50.216Z,996.1
2022-08-27T01:59:52.131Z,996.1
2022-08-27T02:00:56.156Z,996.1
2022-08-27T02:01:56.175Z,996.1
2022-08-27T02:02:58.137Z,996.1
2022-08-27T02:04:00.185Z,996.1
2022-08-27T02:05:02.280Z,996.1
2022-08-27T02:06:04.143Z,996.1
2022-08-27T02:07:06.141Z,996.1
2022-08-27T02:08:08.213Z,996.2
2022-08-27T02:09:10.155Z,996.2
2022-08-27T02:10:12.170Z,996.2
2022-08-27T02:11:14.154Z,996.2
2022-08-27T02:12:16.149Z,996.1
2022-08-27T02:13:18.158Z,996.1
2022-08-27T02:14:20.159Z,996.1
2022-08-27T02:15:22.211Z,996.1
2022-08-27T02:16:24.954Z,996
2022-08-27T02:17:26.154Z,996
2022-08-27T02:18:28.161Z,996
2022-08-27T02:19:30.214Z,996
2022-08-27T02:20:32.193Z,996
2022-08-27T02:21:34.171Z,996
2022-08-27T02:22:36.261Z,996
2022-08-27T02:23:38.171Z,996
2022-08-27T02:24:40.496Z,996
2022-08-27T02:25:42.209Z,996.1
2022-08-27T02:26:44.191Z,996.1
2022-08-27T02:27:46.169Z,996.1
2022-08-27T02:28:48.184Z,996.1
2022-08-27T02:29:50.252Z,996
2022-08-27T02:30:52.576Z,996
2022-08-27T02:31:54.929Z,996
2022-08-27T02:32:56.972Z,996
2022-08-27T02:33:59.245Z,995.9
2022-08-27T02:35:01.472Z,995.9
2022-08-27T02:36:04.306Z,995.9
2022-08-27T02:37:07.043Z,995.8
2022-08-27T02:38:09.521Z,995.8
2022-08-27T02:39:11.306Z,995.8
2022-08-27T02:40:13.293Z,995.8
2022-08-27T02:41:15.223Z,995.8
2022-08-27T02:42:17.208Z,995.8
2022-08-27T02:43:25.071Z,995.8
2022-08-27T02:44:21.235Z,995.8
2022-08-27T02:45:23.211Z,995.8
2022-08-27T02:46:25.308Z,995.8
2022-08-27T02:47:27.220Z,995.8
2022-08-27T02:48:29.269Z,995.8
2022-08-27T02:49:31.247Z,995.8
2022-08-27T02:50:33.219Z,995.8
2022-08-27T02:51:35.239Z,995.9
2022-08-27T02:52:38.273Z,995.9
2022-08-27T02:53:41.252Z,995.9
2022-08-27T02:54:43.304Z,995.9
2022-08-27T02:55:46.073Z,995.9
2022-08-27T02:56:48.342Z,995.9
2022-08-27T02:57:50.235Z,995.9
2022-08-27T02:58:52.221Z,995.9
2022-08-27T02:59:54.262Z,995.9
2022-08-27T03:00:56.259Z,996
2022-08-27T03:01:58.379Z,995.9
2022-08-27T03:03:00.301Z,996
2022-08-27T03:04:02.244Z,996
2022-08-27T03:05:04.261Z,996
2022-08-27T03:06:06.244Z,996
2022-08-27T03:07:08.246Z,996
2022-08-27T03:08:10.439Z,996
2022-08-27T03:09:13.321Z,996
2022-08-27T03:10:15.286Z,996
2022-08-27T03:11:17.259Z,996
2022-08-27T03:12:19.251Z,996
2022-08-27T03:13:21.255Z,996
2022-08-27T03:14:24.288Z,996
2022-08-27T03:15:27.089Z,996
2022-08-27T03:16:28.303Z,995.9
2022-08-27T03:17:30.255Z,996
2022-08-27T03:18:33.054Z,996
2022-08-27T03:19:34.294Z,996.1
2022-08-27T03:20:36.265Z,996.1
2022-08-27T03:21:38.262Z,996.1
2022-08-27T03:22:40.273Z,996.1
2022-08-27T03:23:42.267Z,996.1
2022-08-27T03:24:44.290Z,996.1
2022-08-27T03:25:46.312Z,996.1
2022-08-27T03:26:52.673Z,996.1
2022-08-27T03:27:50.800Z,996.2
2022-08-27T03:28:52.279Z,996.1
2022-08-27T03:29:54.311Z,996.2
2022-08-27T03:30:56.338Z,996.2
2022-08-27T03:31:58.284Z,996.2
2022-08-27T03:33:01.416Z,996.2
2022-08-27T03:38:35.313Z,996.2
2022-08-27T03:39:37.429Z,996.3
2022-08-27T03:40:39.292Z,996.2
2022-08-27T03:41:43.880Z,996.2
2022-08-27T03:42:43.325Z,996.3
2022-08-27T03:43:45.325Z,996.2
2022-08-27T03:44:47.375Z,996.2
2022-08-27T03:46:01.227Z,996.2
2022-08-27T03:46:51.464Z,996.2
2022-08-27T03:47:54.242Z,996.3
2022-08-27T03:48:57.354Z,996.3
2022-08-27T03:49:58.309Z,996.4
2022-08-27T03:51:00.320Z,996.4
2022-08-27T03:52:02.340Z,996.4
2022-08-27T03:53:04.317Z,996.4
2022-08-27T03:54:06.312Z,996.4
2022-08-27T03:55:08.321Z,996.4
2022-08-27T03:56:10.313Z,996.4
2022-08-27T03:57:12.382Z,996.5
2022-08-27T03:58:14.317Z,996.5
2022-08-27T03:59:16.327Z,996.5
2022-08-27T04:00:18.366Z,996.5
2022-08-27T04:01:20.460Z,996.5
2022-08-27T04:02:22.405Z,996.5
2022-08-27T04:03:24.361Z,996.5
2022-08-27T04:04:26.378Z,996.5
2022-08-27T04:05:28.350Z,996.5
2022-08-27T04:06:30.333Z,996.6
2022-08-27T04:07:32.377Z,996.6
2022-08-27T04:08:34.343Z,996.5
2022-08-27T04:09:36.371Z,996.5
2022-08-27T04:10:38.342Z,996.5
2022-08-27T04:11:40.356Z,996.5
2022-08-27T04:12:42.356Z,996.5
2022-08-27T04:13:44.353Z,996.5
2022-08-27T04:14:46.372Z,996.6
2022-08-27T04:15:48.399Z,996.7
2022-08-27T04:16:50.747Z,996.7
2022-08-27T04:17:52.359Z,996.8
2022-08-27T04:18:54.357Z,996.8
2022-08-27T04:19:56.413Z,996.8
2022-08-27T04:20:58.367Z,996.7
2022-08-27T04:22:00.367Z,996.7
2022-08-27T04:23:02.360Z,996.7
2022-08-27T04:24:04.373Z,996.8
2022-08-27T04:25:06.400Z,996.9
2022-08-27T04:26:08.411Z,996.8
2022-08-27T04:27:10.447Z,996.8
2022-08-27T04:28:12.548Z,996.7
2022-08-27T04:29:14.380Z,996.6
2022-08-27T04:30:17.061Z,996.5
2022-08-27T04:31:18.448Z,996.5
2022-08-27T04:32:20.428Z,996.5
2022-08-27T04:33:22.376Z,996.5
2022-08-27T04:34:24.381Z,996.5
2022-08-27T04:35:26.457Z,996.5
2022-08-27T04:36:28.398Z,996.5
2022-08-27T04:37:30.385Z,996.5
2022-08-27T04:38:32.391Z,996.4
2022-08-27T04:39:34.416Z,996.4
2022-08-27T04:40:36.466Z,996.3
2022-08-27T04:41:38.392Z,996.3
2022-08-27T04:42:40.427Z,996.3
2022-08-27T04:43:42.398Z,996.3
2022-08-27T04:44:44.404Z,996.3
2022-08-27T04:45:46.456Z,996.4
2022-08-27T04:46:49.395Z,996.3
2022-08-27T04:47:50.446Z,996.3
2022-08-27T04:48:52.407Z,996.3
2022-08-27T04:49:54.979Z,996.2
2022-08-27T04:50:56.479Z,996.2
2022-08-27T04:51:58.409Z,996.2
2022-08-27T04:53:00.416Z,996.2
2022-08-27T04:54:02.451Z,996.2
2022-08-27T04:55:04.464Z,996.2
2022-08-27T04:56:06.454Z,996.2
2022-08-27T04:57:08.429Z,996.2
2022-08-27T04:58:10.566Z,996.2
2022-08-27T04:59:12.440Z,996.2
2022-08-27T05:00:14.451Z,996.3
2022-08-27T05:01:16.577Z,996.2
2022-08-27T05:02:18.426Z,996.3
2022-08-27T05:03:20.423Z,996.3
2022-08-27T05:04:22.428Z,996.3
2022-08-27T05:05:24.478Z,996.3
2022-08-27T05:06:26.501Z,996.3
2022-08-27T05:07:28.479Z,996.3
2022-08-27T05:08:30.440Z,996.2
2022-08-27T05:09:32.431Z,996.3
2022-08-27T05:10:34.500Z,996.3
2022-08-27T05:11:36.468Z,996.3
2022-08-27T05:12:38.441Z,996.3
2022-08-27T05:13:40.442Z,996.3
2022-08-27T05:14:42.466Z,996.3
2022-08-27T05:15:44.515Z,996.3
2022-08-27T05:16:46.502Z,996.3
2022-08-27T05:17:48.452Z,996.3
2022-08-27T05:18:50.460Z,996.3
2022-08-27T05:19:52.453Z,996.4
2022-08-27T05:20:54.488Z,996.4
2022-08-27T05:21:56.497Z,996.4
2022-08-27T05:22:58.464Z,996.4
2022-08-27T05:24:00.509Z,996.4
2022-08-27T05:25:02.516Z,996.4
2022-08-27T05:26:04.471Z,996.4
2022-08-27T05:27:06.481Z,996.4
2022-08-27T05:28:08.578Z,996.4
2022-08-27T05:29:10.547Z,996.4
2022-08-27T05:30:12.518Z,996.4
2022-08-27T05:31:14.559Z,996.4
2022-08-27T05:32:16.482Z,996.4
2022-08-27T05:33:18.506Z,996.4
2022-08-27T05:34:22.095Z,996.4
2022-08-27T05:35:22.477Z,996.4
2022-08-27T05:36:24.548Z,996.4
2022-08-27T05:37:26.482Z,996.3
2022-08-27T05:38:28.495Z,996.3
2022-08-27T05:39:30.481Z,996.3
2022-08-27T05:40:32.580Z,996.3
2022-08-27T05:41:34.621Z,996.3
2022-08-27T05:42:36.493Z,996.3
2022-08-27T05:43:38.500Z,996.2
2022-08-27T05:44:41.777Z,996.2
2022-08-27T05:45:42.526Z,996.1
2022-08-27T05:46:44.590Z,995.9
2022-08-27T05:47:46.504Z,995.8
2022-08-27T05:48:48.510Z,995.7
2022-08-27T05:49:50.512Z,995.6
2022-08-27T05:50:52.518Z,995.5
2022-08-27T05:51:54.584Z,995.5
2022-08-27T05:52:56.511Z,995.5
2022-08-27T05:53:58.508Z,995.5
2022-08-27T05:55:00.522Z,995.5
2022-08-27T05:56:02.563Z,995.6
2022-08-27T05:57:04.557Z,995.5
2022-08-27T05:58:06.530Z,995.5
2022-08-27T05:59:08.656Z,995.5
2022-08-27T06:00:14.692Z,995.5
2022-08-27T06:01:12.530Z,995.5
2022-08-27T06:02:14.595Z,995.5
2022-08-27T06:03:16.531Z,995.5
2022-08-27T06:04:18.609Z,995.5
2022-08-27T06:05:20.554Z,995.5
2022-08-27T06:06:22.542Z,995.5
2022-08-27T06:07:24.541Z,995.6
2022-08-27T06:08:26.546Z,995.6
2022-08-27T06:09:28.568Z,995.6
2022-08-27T06:10:30.579Z,995.7
2022-08-27T06:11:32.576Z,995.7
2022-08-27T06:12:34.547Z,995.7
2022-08-27T06:13:36.548Z,995.7
2022-08-27T06:14:38.557Z,995.7
2022-08-27T06:15:40.751Z,995.7
2022-08-27T06:16:42.776Z,995.7
2022-08-27T06:17:44.552Z,995.7
2022-08-27T06:18:46.559Z,995.7
2022-08-27T06:19:48.561Z,995.7
2022-08-27T06:20:50.651Z,995.8
2022-08-27T06:22:00.566Z,995.7
2022-08-27T06:22:54.735Z,995.8
2022-08-27T06:23:56.619Z,995.8
2022-08-27T06:24:58.571Z,995.8
2022-08-27T06:26:00.717Z,995.8
2022-08-27T06:27:02.574Z,995.8
2022-08-27T06:28:04.573Z,995.7
2022-08-27T06:29:06.579Z,995.7
2022-08-27T06:30:08.642Z,995.7
2022-08-27T06:31:10.702Z,995.7
2022-08-27T06:32:12.584Z,995.7
2022-08-27T06:33:14.635Z,995.7
2022-08-27T06:34:16.606Z,995.7
2022-08-27T06:35:18.659Z,995.7
2022-08-27T06:36:20.590Z,995.7
2022-08-27T06:37:22.602Z,995.8
2022-08-27T06:38:24.628Z,995.8
2022-08-27T06:39:26.593Z,995.8
2022-08-27T06:40:28.947Z,995.8
2022-08-27T06:41:30.637Z,995.8
2022-08-27T06:42:32.614Z,995.8
2022-08-27T06:43:34.631Z,995.8
2022-08-27T06:44:36.618Z,995.8
2022-08-27T06:45:38.608Z,995.8
2022-08-27T06:46:40.736Z,995.8
2022-08-27T06:47:42.610Z,995.8
2022-08-27T06:48:44.695Z,995.8
2022-08-27T06:49:46.661Z,995.8
2022-08-27T06:50:48.621Z,995.8
2022-08-27T06:51:50.622Z,995.8
2022-08-27T06:52:52.629Z,995.8
2022-08-27T06:53:54.662Z,995.8
2022-08-27T06:54:56.660Z,995.8
2022-08-27T06:55:58.643Z,995.8
2022-08-27T06:57:00.737Z,995.8
2022-08-27T06:58:02.644Z,995.9
2022-08-27T06:59:05.811Z,995.9
2022-08-27T07:00:06.683Z,995.9
2022-08-27T07:01:08.673Z,995.9
2022-08-27T07:02:11.685Z,995.9
2022-08-27T07:03:13.049Z,995.8
2022-08-27T07:04:14.658Z,995.8
2022-08-27T07:05:16.651Z,995.8
2022-08-27T07:06:18.733Z,995.8
2022-08-27T07:07:30.177Z,995.8
2022-08-27T07:08:22.791Z,995.9
2022-08-27T07:09:24.656Z,995.9
2022-08-27T07:10:26.659Z,995.9
2022-08-27T07:11:28.665Z,995.9
2022-08-27T07:12:30.896Z,995.9
2022-08-27T07:13:32.682Z,995.9
2022-08-27T07:14:37.928Z,995.9
2022-08-27T07:15:36.727Z,996
2022-08-27T07:16:38.914Z,996
2022-08-27T07:17:40.685Z,995.9
2022-08-27T07:18:42.682Z,995.9
2022-08-27T07:19:44.712Z,995.9
2022-08-27T07:20:46.676Z,995.9
2022-08-27T07:21:48.679Z,995.9
2022-08-27T07:22:50.682Z,995.8
2022-08-27T07:23:52.728Z,995.9
2022-08-27T07:24:54.042Z,995.9
2022-08-27T07:25:55.065Z,995.9
2022-08-27T07:26:56.688Z,996
2022-08-27T07:27:58.233Z,996
2022-08-27T07:28:59.712Z,996
2022-08-27T07:30:01.748Z,996
2022-08-27T07:31:02.719Z,996.1
2022-08-27T07:32:04.701Z,996
2022-08-27T07:33:06.702Z,996
2022-08-27T07:34:08.749Z,996
2022-08-27T07:35:10.709Z,996
2022-08-27T07:36:12.720Z,996.1
2022-08-27T07:37:14.714Z,996.1
2022-08-27T07:38:16.726Z,996
2022-08-27T07:39:18.734Z,996
2022-08-27T07:40:20.780Z,996.1
2022-08-27T07:41:22.094Z,996.1
2022-08-27T07:42:23.088Z,996.2
2022-08-27T07:43:24.135Z,996.2
2022-08-27T07:44:25.951Z,996.2
2022-08-27T07:45:26.132Z,996.2
2022-08-27T07:46:27.192Z,996.2
2022-08-27T07:47:28.745Z,996.2
2022-08-27T07:48:30.735Z,996.2
2022-08-27T07:49:32.728Z,996.2
2022-08-27T07:50:34.748Z,996.2
2022-08-27T07:51:36.834Z,996.2
2022-08-27T07:52:38.736Z,996.2
2022-08-27T07:53:40.734Z,996.3
2022-08-27T07:54:42.776Z,996.3
2022-08-27T07:55:44.735Z,996.3
2022-08-27T07:56:54.961Z,996.3
2022-08-27T07:57:47.097Z,996.3
2022-08-27T07:58:48.155Z,996.2
2022-08-27T07:59:49.180Z,996.2
2022-08-27T08:00:50.127Z,996.2
2022-08-27T08:01:51.187Z,996.2
2022-08-27T08:02:52.257Z,996.2
2022-08-27T08:03:53.135Z,996.3
2022-08-27T08:04:54.770Z,996.3
2022-08-27T08:05:56.791Z,996.4
2022-08-27T08:06:58.763Z,996.4
2022-08-27T08:08:00.811Z,996.4
2022-08-27T08:09:02.786Z,996.4
2022-08-27T08:10:04.814Z,996.4
2022-08-27T08:11:06.821Z,996.4
2022-08-27T08:12:08.935Z,996.4
2022-08-27T08:13:10.836Z,996.4
2022-08-27T08:14:12.776Z,996.3
2022-08-27T08:15:14.214Z,996.3
2022-08-27T08:16:15.771Z,996.3
2022-08-27T08:17:17.237Z,996.3
2022-08-27T08:18:18.236Z,996.3
2022-08-27T08:19:19.167Z,996.3
2022-08-27T08:20:31.019Z,996.3
2022-08-27T08:21:21.171Z,996.3
2022-08-27T08:22:22.168Z,996.3
2022-08-27T08:23:23.234Z,996.4
2022-08-27T08:24:24.193Z,996.5
2022-08-27T08:25:25.369Z,996.5
2022-08-27T08:26:26.811Z,996.4
2022-08-27T08:27:28.345Z,996.4
2022-08-27T08:28:29.884Z,996.4
2022-08-27T08:29:31.193Z,996.4
2022-08-27T08:30:35.171Z,996.4
2022-08-27T08:31:34.215Z,996.4
2022-08-27T08:32:35.198Z,996.4
2022-08-27T08:33:36.270Z,996.3
2022-08-27T08:34:37.211Z,996.4
2022-08-27T08:35:40.561Z,996.4
2022-08-27T08:36:39.175Z,996.4
2022-08-27T08:37:40.207Z,996.4
2022-08-27T08:38:41.241Z,996.5
2022-08-27T08:39:42.209Z,996.5
2022-08-27T08:40:43.240Z,996.7
2022-08-27T08:41:44.211Z,996.6
2022-08-27T08:42:50.477Z,996.7
2022-08-27T08:43:46.224Z,996.8
2022-08-27T08:44:47.292Z,996.8
2022-08-27T08:45:48.252Z,996.8
2022-08-27T08:46:49.265Z,996.9
2022-08-27T08:47:50.211Z,996.9
2022-08-27T08:48:51.218Z,996.8
2022-08-27T08:49:52.351Z,996.9
2022-08-27T08:50:53.240Z,996.8
2022-08-27T08:51:54.255Z,996.8
2022-08-27T08:52:55.228Z,996.8
2022-08-27T08:53:56.231Z,996.8
2022-08-27T08:54:57.230Z,996.8
2022-08-27T08:55:58.852Z,996.8
2022-08-27T08:57:00.282Z,996.7
2022-08-27T08:58:01.257Z,996.8
2022-08-27T08:59:02.384Z,996.7
2022-08-27T09:00:03.435Z,996.7
2022-08-27T09:01:04.959Z,996.9
2022-08-27T09:02:10.172Z,997
2022-08-27T09:03:08.889Z,997
2022-08-27T09:04:10.973Z,997.1
2022-08-27T09:05:12.866Z,997.1
2022-08-27T09:06:14.255Z,996.9
2022-08-27T09:07:15.282Z,996.8
2022-08-27T09:08:32.303Z,996.7
2022-08-27T09:09:17.325Z,996.7
2022-08-27T09:10:18.268Z,996.8
2022-08-27T09:11:19.229Z,996.8
2022-08-27T09:12:20.258Z,996.8
2022-08-27T09:13:21.270Z,996.8
2022-08-27T09:14:22.377Z,996.8
2022-08-27T09:15:23.293Z,996.8
2022-08-27T09:16:24.356Z,996.8
2022-08-27T09:17:25.652Z,996.8
2022-08-27T09:18:28.050Z,996.8
2022-08-27T09:19:27.276Z,996.8
2022-08-27T09:20:28.307Z,996.9
2022-08-27T09:21:29.939Z,996.9
2022-08-27T09:22:31.320Z,996.9
2022-08-27T09:23:32.342Z,996.8
2022-08-27T09:24:33.275Z,996.8
2022-08-27T09:25:34.328Z,996.8
2022-08-27T09:26:35.728Z,996.9
2022-08-27T09:27:36.330Z,996.9
2022-08-27T09:28:37.269Z,996.9
2022-08-27T09:29:38.294Z,996.9
2022-08-27T09:30:40.044Z,996.9
2022-08-27T09:31:41.331Z,996.9
2022-08-27T09:32:42.302Z,996.9
2022-08-27T09:33:53.638Z,997
2022-08-27T09:34:45.305Z,997.1
2022-08-27T09:35:46.965Z,997.2
2022-08-27T09:36:48.929Z,997.3
2022-08-27T09:37:50.945Z,997.3
2022-08-27T09:38:55.701Z,997.3
2022-08-27T09:39:54.974Z,997.2
2022-08-27T09:40:56.370Z,997.1
2022-08-27T09:41:57.323Z,997.1
2022-08-27T09:42:58.946Z,997.2
2022-08-27T09:44:00.948Z,997.2
2022-08-27T09:45:03.118Z,997.2
2022-08-27T09:46:05.089Z,997.2
2022-08-27T09:47:06.971Z,997.3
2022-08-27T09:48:09.084Z,997.3
2022-08-27T09:49:10.954Z,997.2
2022-08-27T09:50:12.957Z,997.2
2022-08-27T09:51:15.136Z,997.2
2022-08-27T09:52:16.344Z,997.1
2022-08-27T09:53:17.695Z,997
2022-08-27T09:54:18.290Z,997
2022-08-27T09:55:19.347Z,997
2022-08-27T09:56:20.444Z,997
2022-08-27T09:57:22.225Z,997
2022-08-27T09:58:23.974Z,997.1
2022-08-27T09:59:25.978Z,997.2
2022-08-27T10:00:27.982Z,997.2
2022-08-27T10:01:30.107Z,997.1
2022-08-27T10:02:32.009Z,997
2022-08-27T10:03:33.752Z,997.1
2022-08-27T10:04:35.001Z,997.2
2022-08-27T10:05:36.984Z,997.2
2022-08-27T10:06:39.026Z,997.2
2022-08-27T10:07:41.028Z,997.2
2022-08-27T10:08:42.997Z,997.3
2022-08-27T10:09:45.038Z,997.2
2022-08-27T10:10:46.999Z,997.2
2022-08-27T10:11:49.031Z,997.2
2022-08-27T10:12:51.006Z,997.1
2022-08-27T10:13:52.655Z,997.1
2022-08-27T10:14:54.008Z,997.1
2022-08-27T10:15:56.009Z,997.1
2022-08-27T10:16:58.145Z,997.1
2022-08-27T10:18:00.036Z,997.2
2022-08-27T10:19:02.413Z,997.2
2022-08-27T10:20:04.060Z,997.2
2022-08-27T10:21:06.128Z,997.2
2022-08-27T10:22:08.019Z,997.2
2022-08-27T10:23:10.021Z,997.2
2022-08-27T10:24:12.069Z,997.2
2022-08-27T10:25:14.023Z,997.2
2022-08-27T10:26:15.437Z,997.2
2022-08-27T10:27:16.450Z,997.1
2022-08-27T10:28:17.426Z,997
2022-08-27T10:29:18.468Z,997
2022-08-27T10:30:19.480Z,997
2022-08-27T10:31:20.660Z,997
2022-08-27T10:32:21.360Z,997
2022-08-27T10:33:23.624Z,997
2022-08-27T10:34:23.459Z,997
2022-08-27T10:35:25.285Z,997
2022-08-27T10:36:26.355Z,997
2022-08-27T10:37:26.453Z,997
2022-08-27T10:38:27.428Z,997
2022-08-27T10:39:28.429Z,997
2022-08-27T10:40:29.558Z,997.1
2022-08-27T10:41:30.469Z,997
2022-08-27T10:42:31.496Z,997
2022-08-27T10:43:32.497Z,997.1
2022-08-27T10:44:33.435Z,997.2
2022-08-27T10:45:34.477Z,997.2
2022-08-27T10:46:35.538Z,997.1
2022-08-27T10:47:36.509Z,997.1
2022-08-27T10:48:37.454Z,997.1
2022-08-27T10:49:38.463Z,997.1
2022-08-27T10:50:39.456Z,997.1
2022-08-27T10:51:40.465Z,997
2022-08-27T10:52:41.505Z,997
2022-08-27T10:53:42.498Z,997
2022-08-27T10:54:43.465Z,997
2022-08-27T10:55:44.467Z,997.1
2022-08-27T10:56:45.535Z,997
2022-08-27T10:57:56.702Z,997.1
2022-08-27T10:58:47.494Z,997.1
2022-08-27T10:59:48.494Z,997.1
2022-08-27T11:00:50.216Z,997.1
2022-08-27T11:01:51.583Z,997
2022-08-27T11:02:52.515Z,997
2022-08-27T11:03:53.482Z,997
2022-08-27T11:04:54.473Z,997.1
2022-08-27T11:05:55.511Z,997
2022-08-27T11:06:56.546Z,997
2022-08-27T11:07:57.535Z,997.1
2022-08-27T11:08:59.123Z,997.2
2022-08-27T11:10:01.118Z,997.2
2022-08-27T11:11:23.540Z,997.2
2022-08-27T11:12:14.096Z,997.1
2022-08-27T11:13:04.492Z,997.1
2022-08-27T11:14:05.499Z,997.1
2022-08-27T11:15:09.947Z,997.1
2022-08-27T11:16:07.548Z,997
2022-08-27T11:17:08.540Z,997.1
2022-08-27T11:18:09.762Z,997
2022-08-27T11:19:10.739Z,997.1
2022-08-27T11:20:11.794Z,997
2022-08-27T11:21:12.509Z,997.1
2022-08-27T11:22:14.867Z,997.1
2022-08-27T11:23:14.547Z,997.1
2022-08-27T11:24:15.520Z,997.1
2022-08-27T11:25:16.578Z,997.1
2022-08-27T11:26:18.160Z,997.2
2022-08-27T11:27:20.294Z,997.2
2022-08-27T11:28:24.819Z,997.2
2022-08-27T11:29:22.531Z,997.1
2022-08-27T11:30:24.180Z,997.2
2022-08-27T11:31:25.685Z,997.2
2022-08-27T11:32:26.544Z,997.2
2022-08-27T11:33:28.180Z,997.1
2022-08-27T11:34:29.539Z,997
2022-08-27T11:35:30.556Z,997
2022-08-27T11:36:32.725Z,997
2022-08-27T11:37:34.170Z,997
2022-08-27T11:38:36.411Z,997.1
2022-08-27T11:39:38.422Z,997
2022-08-27T11:40:39.749Z,997
2022-08-27T11:41:44.934Z,997
2022-08-27T11:43:44.694Z,996.9
2022-08-27T11:44:45.656Z,996.9
2022-08-27T11:45:48.442Z,996.9
2022-08-27T11:46:47.745Z,996.9
2022-08-27T11:48:49.676Z,996.8
2022-08-27T11:49:50.727Z,996.8
2022-08-27T11:50:51.624Z,996.8
2022-08-27T11:51:52.822Z,996.9
2022-08-27T11:52:53.670Z,996.8
2022-08-27T11:53:54.694Z,996.7
2022-08-27T11:54:55.618Z,996.7
2022-08-27T11:56:57.596Z,996.7
2022-08-27T11:57:58.667Z,996.7
2022-08-27T11:58:59.636Z,996.7
2022-08-27T12:00:00.584Z,996.6
2022-08-27T12:01:04.668Z,996.6
2022-08-27T12:02:03.265Z,996.6
2022-08-27T12:03:04.638Z,996.7
2022-08-27T12:04:05.739Z,996.7
2022-08-27T12:05:06.608Z,996.6
2022-08-27T12:06:07.599Z,996.6
2022-08-27T12:07:08.705Z,996.6
2022-08-27T12:08:09.680Z,996.6
2022-08-27T12:09:10.628Z,996.6
2022-08-27T12:10:11.631Z,996.6
2022-08-27T12:11:12.587Z,996.5
2022-08-27T12:12:13.605Z,996.5
2022-08-27T12:13:14.610Z,996.5
2022-08-27T12:14:15.957Z,996.5
2022-08-27T12:15:17.100Z,996.5
2022-08-27T12:16:19.545Z,996.5
2022-08-27T12:17:20.704Z,996.4
2022-08-27T12:18:21.672Z,996.5
2022-08-27T12:19:22.887Z,996.5
2022-08-27T12:20:23.676Z,996.4
2022-08-27T12:21:24.671Z,996.4
2022-08-27T12:22:25.670Z,996.4
2022-08-27T12:23:26.893Z,996.3
2022-08-27T12:24:27.765Z,996.3
2022-08-27T12:25:28.842Z,996.3
2022-08-27T12:26:29.751Z,996.3
2022-08-27T12:27:30.627Z,996.2
2022-08-27T12:28:31.832Z,996.2
2022-08-27T12:29:32.772Z,996.2
2022-08-27T12:30:34.150Z,996.2
2022-08-27T12:31:35.747Z,996.2
2022-08-27T12:32:37.046Z,996.2
2022-08-27T12:33:39.320Z,996.2
2022-08-27T12:34:40.715Z,996.2
2022-08-27T12:35:41.914Z,996.2
2022-08-27T12:36:42.853Z,996.2
2022-08-27T12:37:44.894Z,996.2
2022-08-27T12:38:50.309Z,996.2
2022-08-27T12:39:48.715Z,996.2
2022-08-27T12:40:49.849Z,996.2
2022-08-27T12:41:51.735Z,996.2
2022-08-27T12:42:52.987Z,996.2
2022-08-27T12:43:56.823Z,996.2
2022-08-27T12:44:58.000Z,996.2
2022-08-27T12:45:58.856Z,996.2
2022-08-27T12:46:59.959Z,996.3
2022-08-27T12:48:01.742Z,996.2
2022-08-27T12:49:10.132Z,996.3
2022-08-27T12:50:04.659Z,996.3
2022-08-27T12:51:07.634Z,996.3
2022-08-27T12:52:12.171Z,996.3
2022-08-27T12:53:15.437Z,996.3
2022-08-27T12:54:19.331Z,996.3
2022-08-27T12:55:23.526Z,996.3
2022-08-27T12:56:27.337Z,996.3
2022-08-27T12:57:31.734Z,996.4
2022-08-27T12:58:35.537Z,996.4
2022-08-27T12:59:39.331Z,996.4
2022-08-27T13:00:43.378Z,996.4
2022-08-27T13:01:47.613Z,996.4
2022-08-27T13:02:51.637Z,996.3
2022-08-27T13:03:55.220Z,996.4
2022-08-27T13:04:59.889Z,996.3
2022-08-27T13:06:04.350Z,996.3
2022-08-27T13:07:08.149Z,996.3
2022-08-27T13:08:12.595Z,996.3
2022-08-27T13:09:16.321Z,996.3
2022-08-27T13:10:20.682Z,996.4
2022-08-27T13:11:27.126Z,996.3
2022-08-27T13:12:34.276Z,996.4
2022-08-27T13:13:38.410Z,996.4
2022-08-27T13:14:45.530Z,996.4
2022-08-27T13:15:49.623Z,996.4
2022-08-27T13:16:53.414Z,996.4
2022-08-27T13:18:02.420Z,996.4
2022-08-27T13:19:04.439Z,996.4
2022-08-27T13:20:08.358Z,996.4
2022-08-27T13:21:11.804Z,996.4
2022-08-27T13:22:15.487Z,996.4
2022-08-27T13:23:20.363Z,996.4
2022-08-27T13:24:22.719Z,996.4
2022-08-27T13:25:27.002Z,996.4
2022-08-27T13:26:30.521Z,996.4
2022-08-27T13:27:34.930Z,996.3
2022-08-27T13:28:39.030Z,996.3
2022-08-27T13:29:44.674Z,996.3
2022-08-27T13:30:53.564Z,996.3
2022-08-27T13:31:56.817Z,996.3
2022-08-27T13:33:02.920Z,996.3
2022-08-27T13:34:06.252Z,996.3
2022-08-27T13:35:09.687Z,996.3
2022-08-27T13:36:12.786Z,996.3